Time,TemperatureF,DewpointF,PressureIn,WindDirection,WindDirectionDegrees,WindSpeedMPH,WindSpeedGustMPH,Humidity,HourlyPrecipIn,Conditions,Clouds,dailyrainin,SoftwareType,DateUTC
2014-03-20 00:01:00,38.9,38.1,29.88,SW,223,0.0,0.0,97,0.00,,,0.00,WeatherCatV1.24B11,2014-03-20 04:01:00,
2014-03-20 00:06:00,38.9,38.1,29.88,SW,223,0.0,0.0,97,0.00,,,0.00,WeatherCatV1.24B11,2014-03-20 04:06:00,
2014-03-20 00:11:00,39.0,38.2,29.88,SW,223,0.0,1.1,97,0.00,,,0.00,WeatherCatV1.24B11,2014-03-20 04:11:00,
2014-03-20 00:16:00,39.0,38.2,29.89,West,278,5.7,5.7,97,0.00,,,0.00,WeatherCatV1.24B11,2014-03-20 04:16:00,
2014-03-20 00:21:00,38.9,38.1,29.91,WNW,292,9.0,11.3,97,0.00,,,0.00,WeatherCatV1.24B11,2014-03-20 04:21:00,
2014-03-20 00:26:00,38.8,38.0,29.88,NW,311,5.7,5.7,97,0.00,,,0.00,WeatherCatV1.24B11,2014-03-20 04:26:00,
2014-03-20 00:31:00,38.6,37.8,29.88,WNW,302,2.3,5.7,97,0.00,,,0.00,WeatherCatV1.24B11,2014-03-20 04:31:00,
2014-03-20 00:36:00,38.6,37.8,29.87,West,276,0.0,2.3,97,0.00,,,0.00,WeatherCatV1.24B11,2014-03-20 04:36:00,
2014-03-20 00:41:00,38.6,37.8,29.87,West,276,0.0,3.4,97,0.00,,,0.00,WeatherCatV1.24B11,2014-03-20 04:41:00,
2014-03-20 00:46:00,38.6,37.8,29.87,West,276,0.0,0.0,97,0.00,,,0.00,WeatherCatV1.24B11,2014-03-20 04:46:00,
2014-03-20 00:51:00,38.7,37.9,29.87,West,275,0.0,2.3,97,0.00,,,0.00,WeatherCatV1.24B11,2014-03-20 04:51:00,
2014-03-20 00:56:00,38.7,37.9,29.87,West,272,0.0,0.0,97,0.00,,,0.00,WeatherCatV1.24B11,2014-03-20 04:56:00,
2014-03-20 01:01:00,38.7,37.9,29.86,West,272,0.0,0.0,97,0.00,,,0.00,WeatherCatV1.24B11,2014-03-20 05:01:00,
2014-03-20 01:05:00,38.8,38.0,29.86,West,272,0.0,0.0,97,0.00,,,0.00,WeatherCatV1.24B11,2014-03-20 05:05:00,
2014-03-20 01:10:00,38.9,38.1,29.86,West,272,0.0,0.0,97,0.00,,,0.00,WeatherCatV1.24B11,2014-03-20 05:10:00,
2014-03-20 01:15:00,38.9,38.1,29.86,West,272,0.0,0.0,97,0.00,,,0.00,WeatherCatV1.24B11,2014-03-20 05:15:00,
2014-03-20 01:20:00,39.1,38.3,29.86,West,272,0.0,0.0,97,0.00,,,0.00,WeatherCatV1.24B11,2014-03-20 05:20:00,
2014-03-20 01:25:00,39.1,38.3,29.85,West,274,0.0,0.0,97,0.00,,,0.00,WeatherCatV1.24B11,2014-03-20 05:25:00,
2014-03-20 01:30:00,38.9,38.1,29.85,NNW,335,0.0,4.5,97,0.00,,,0.00,WeatherCatV1.24B11,2014-03-20 05:30:00,
2014-03-20 01:35:00,38.8,38.0,29.85,NW,306,3.4,4.5,97,0.00,,,0.00,WeatherCatV1.24B11,2014-03-20 05:35:00,
2014-03-20 01:40:00,38.6,37.8,29.85,NW,309,0.0,1.1,97,0.00,,,0.00,WeatherCatV1.24B11,2014-03-20 05:40:00,
2014-03-20 01:45:00,38.6,37.8,29.84,NW,309,0.0,0.0,97,0.00,,,0.00,WeatherCatV1.24B11,2014-03-20 05:45:00,
2014-03-20 01:50:00,38.5,37.7,29.84,NW,310,0.0,2.3,97,0.00,,,0.00,WeatherCatV1.24B11,2014-03-20 05:50:00,
2014-03-20 01:55:00,38.4,37.6,29.84,NW,311,0.0,0.0,97,0.00,,,0.00,WeatherCatV1.24B11,2014-03-20 05:55:00,
2014-03-20 02:00:00,38.3,37.5,29.84,NW,311,0.0,0.0,97,0.00,,,0.00,WeatherCatV1.24B11,2014-03-20 06:00:00,
2014-03-20 02:05:00,38.2,37.4,29.83,NW,312,0.0,0.0,97,0.00,,,0.00,WeatherCatV1.24B11,2014-03-20 06:05:00,
2014-03-20 02:10:00,38.0,37.2,29.83,NW,312,0.0,0.0,97,0.00,,,0.00,WeatherCatV1.24B11,2014-03-20 06:10:00,
2014-03-20 02:15:00,37.9,37.1,29.84,NW,312,0.0,0.0,97,0.00,,,0.00,WeatherCatV1.24B11,2014-03-20 06:15:00,
2014-03-20 02:20:00,37.8,37.0,29.84,NW,312,0.0,0.0,97,0.00,,,0.00,WeatherCatV1.24B11,2014-03-20 06:20:00,
2014-03-20 02:25:00,37.5,36.5,29.84,NW,311,0.0,0.0,96,0.00,,,0.00,WeatherCatV1.24B11,2014-03-20 06:25:00,
2014-03-20 02:30:00,37.4,36.4,29.84,NW,311,0.0,0.0,96,0.00,,,0.00,WeatherCatV1.24B11,2014-03-20 06:30:00,
2014-03-20 02:35:00,37.5,36.5,29.84,NW,311,0.0,0.0,96,0.00,,,0.00,WeatherCatV1.24B11,2014-03-20 06:35:00,
2014-03-20 02:40:00,37.4,36.4,29.84,NW,311,0.0,0.0,96,0.00,,,0.00,WeatherCatV1.24B11,2014-03-20 06:40:00,
2014-03-20 02:45:00,37.1,36.1,29.84,NW,310,0.0,0.0,96,0.00,,,0.00,WeatherCatV1.24B11,2014-03-20 06:45:00,
2014-03-20 02:50:00,37.1,36.1,29.84,NW,311,0.0,0.0,96,0.00,,,0.00,WeatherCatV1.24B11,2014-03-20 06:50:00,
2014-03-20 02:55:00,37.1,36.1,29.84,NW,311,0.0,0.0,96,0.00,,,0.00,WeatherCatV1.24B11,2014-03-20 06:55:00,
2014-03-20 03:00:00,37.3,36.3,29.84,NW,311,0.0,0.0,96,0.00,,,0.00,WeatherCatV1.24B11,2014-03-20 07:00:00,
2014-03-20 03:05:00,37.4,36.4,29.84,West,261,0.0,2.3,96,0.00,,,0.00,WeatherCatV1.24B11,2014-03-20 07:05:00,
2014-03-20 03:10:00,37.7,36.7,29.84,West,261,0.0,0.0,96,0.00,,,0.00,WeatherCatV1.24B11,2014-03-20 07:10:00,
2014-03-20 03:15:00,37.7,36.9,29.84,West,261,0.0,0.0,97,0.00,,,0.00,WeatherCatV1.24B11,2014-03-20 07:15:00,
2014-03-20 03:20:00,37.7,36.9,29.84,West,267,0.0,0.0,97,0.00,,,0.00,WeatherCatV1.24B11,2014-03-20 07:20:00,
2014-03-20 03:25:00,37.7,36.9,29.85,NW,314,2.3,6.8,97,0.00,,,0.00,WeatherCatV1.24B11,2014-03-20 07:25:00,
2014-03-20 03:30:00,38.1,37.3,29.84,West,281,2.3,7.9,97,0.00,,,0.00,WeatherCatV1.24B11,2014-03-20 07:30:00,
2014-03-20 03:35:00,38.4,37.6,29.85,NW,304,6.8,6.8,97,0.00,,,0.00,WeatherCatV1.24B11,2014-03-20 07:35:00,
2014-03-20 03:40:00,38.8,38.0,29.85,West,281,1.1,4.5,97,0.00,,,0.00,WeatherCatV1.24B11,2014-03-20 07:40:00,
2014-03-20 03:42:00,38.8,38.0,29.84,NW,306,1.1,4.5,97,0.00,,,0.00,WeatherCatV1.24B11,2014-03-20 07:42:00,
2014-03-20 03:47:00,38.8,38.0,29.85,NW,325,1.1,3.4,97,0.00,,,0.00,WeatherCatV1.24B11,2014-03-20 07:47:00,
2014-03-20 03:52:00,38.8,38.0,29.85,NNW,338,2.3,6.8,97,0.00,,,0.00,WeatherCatV1.24B11,2014-03-20 07:52:00,
2014-03-20 03:57:00,38.8,38.0,29.85,NNW,342,1.1,5.7,97,0.00,,,0.00,WeatherCatV1.24B11,2014-03-20 07:57:00,
2014-03-20 04:02:00,38.8,38.0,29.85,WNW,294,3.4,3.4,97,0.00,,,0.00,WeatherCatV1.24B11,2014-03-20 08:02:00,
2014-03-20 04:07:00,38.8,38.0,29.85,WNW,296,0.0,0.0,97,0.00,,,0.00,WeatherCatV1.24B11,2014-03-20 08:07:00,
2014-03-20 04:12:00,38.8,38.0,29.85,NNW,336,0.0,2.3,97,0.00,,,0.00,WeatherCatV1.24B11,2014-03-20 08:12:00,
2014-03-20 04:17:00,38.9,38.1,29.85,NNW,337,0.0,0.0,97,0.00,,,0.00,WeatherCatV1.24B11,2014-03-20 08:17:00,
2014-03-20 04:22:00,39.0,38.2,29.84,NNW,337,0.0,0.0,97,0.00,,,0.00,WeatherCatV1.24B11,2014-03-20 08:22:00,
2014-03-20 04:27:00,39.0,38.2,29.84,East,92,0.0,0.0,97,0.00,,,0.00,WeatherCatV1.24B11,2014-03-20 08:27:00,
2014-03-20 04:32:00,38.9,38.1,29.84,WSW,248,0.0,0.0,97,0.00,,,0.00,WeatherCatV1.24B11,2014-03-20 08:32:00,
2014-03-20 04:37:00,38.8,38.0,29.85,WSW,247,0.0,0.0,97,0.00,,,0.00,WeatherCatV1.24B11,2014-03-20 08:37:00,
2014-03-20 04:42:00,38.6,37.8,29.85,WSW,247,0.0,0.0,97,0.00,,,0.00,WeatherCatV1.24B11,2014-03-20 08:42:00,
2014-03-20 04:47:00,38.5,37.7,29.85,WSW,249,0.0,0.0,97,0.00,,,0.00,WeatherCatV1.24B11,2014-03-20 08:47:00,
2014-03-20 04:52:00,38.4,37.6,29.85,WSW,249,0.0,0.0,97,0.00,,,0.00,WeatherCatV1.24B11,2014-03-20 08:52:00,
2014-03-20 04:57:00,38.1,37.1,29.85,NE,35,0.0,0.0,96,0.00,,,0.00,WeatherCatV1.24B11,2014-03-20 08:57:00,
2014-03-20 05:02:00,38.0,37.0,29.85,NE,34,0.0,0.0,96,0.00,,,0.00,WeatherCatV1.24B11,2014-03-20 09:02:00,
2014-03-20 05:07:00,38.1,37.3,29.85,WNW,286,0.0,0.0,97,0.00,,,0.00,WeatherCatV1.24B11,2014-03-20 09:07:00,
2014-03-20 05:12:00,38.3,37.5,29.85,WNW,294,0.0,0.0,97,0.00,,,0.00,WeatherCatV1.24B11,2014-03-20 09:12:00,
2014-03-20 05:17:00,38.4,37.4,29.85,West,272,0.0,0.0,96,0.00,,,0.00,WeatherCatV1.24B11,2014-03-20 09:17:00,
2014-03-20 05:22:00,38.4,37.4,29.85,West,262,0.0,2.3,96,0.00,,,0.00,WeatherCatV1.24B11,2014-03-20 09:22:00,
2014-03-20 05:27:00,38.4,37.4,29.85,West,281,0.0,2.3,96,0.00,,,0.00,WeatherCatV1.24B11,2014-03-20 09:27:00,
2014-03-20 05:32:00,38.3,37.3,29.86,WNW,300,5.7,7.9,96,0.00,,,0.00,WeatherCatV1.24B11,2014-03-20 09:32:00,
2014-03-20 05:37:00,38.3,37.3,29.86,NW,309,4.5,7.9,96,0.00,,,0.00,WeatherCatV1.24B11,2014-03-20 09:37:00,
2014-03-20 05:42:00,38.3,37.0,29.86,WNW,292,3.4,3.4,95,0.00,,,0.00,WeatherCatV1.24B11,2014-03-20 09:42:00,
2014-03-20 05:47:00,38.4,37.1,29.86,West,281,2.3,5.7,95,0.00,,,0.00,WeatherCatV1.24B11,2014-03-20 09:47:00,
2014-03-20 05:52:00,38.7,37.1,29.86,West,280,4.5,7.9,94,0.00,,,0.00,WeatherCatV1.24B11,2014-03-20 09:52:00,
2014-03-20 05:57:00,39.2,37.1,29.86,WNW,295,11.3,12.4,92,0.00,,,0.00,WeatherCatV1.24B11,2014-03-20 09:57:00,
2014-03-20 06:02:00,39.7,37.0,29.86,NW,304,2.3,6.8,90,0.00,,,0.00,WeatherCatV1.24B11,2014-03-20 10:02:00,
2014-03-20 06:07:00,39.9,36.3,29.87,NW,307,2.3,5.7,87,0.00,,,0.00,WeatherCatV1.24B11,2014-03-20 10:07:00,
2014-03-20 06:12:00,40.2,36.1,29.87,NW,313,7.9,9.0,85,0.00,,,0.00,WeatherCatV1.24B11,2014-03-20 10:12:00,
2014-03-20 06:17:00,40.6,35.5,29.87,West,279,0.0,6.8,82,0.00,,,0.00,WeatherCatV1.24B11,2014-03-20 10:17:00,
2014-03-20 06:22:00,41.0,35.3,29.87,WNW,294,4.5,4.5,80,0.00,,,0.00,WeatherCatV1.24B11,2014-03-20 10:22:00,
2014-03-20 06:27:00,41.3,35.0,29.87,NW,305,0.0,4.5,78,0.00,,,0.00,WeatherCatV1.24B11,2014-03-20 10:27:00,
2014-03-20 06:32:00,41.8,34.8,29.87,West,275,3.4,11.3,76,0.00,,,0.00,WeatherCatV1.24B11,2014-03-20 10:32:00,
2014-03-20 06:37:00,42.2,34.5,29.88,West,279,2.3,4.5,74,0.00,,,0.00,WeatherCatV1.24B11,2014-03-20 10:37:00,
2014-03-20 06:42:00,42.3,34.6,29.88,WNW,293,0.0,3.4,74,0.00,,,0.00,WeatherCatV1.24B11,2014-03-20 10:42:00,
2014-03-20 06:47:00,42.3,34.3,29.88,WNW,284,0.0,7.9,73,0.00,,,0.00,WeatherCatV1.24B11,2014-03-20 10:47:00,
2014-03-20 06:52:00,42.4,34.0,29.88,NW,304,0.0,5.7,72,0.00,,,0.00,WeatherCatV1.24B11,2014-03-20 10:52:00,
2014-03-20 06:57:00,42.4,34.0,29.88,West,281,4.5,9.0,72,0.00,,,0.00,WeatherCatV1.24B11,2014-03-20 10:57:00,
2014-03-20 07:02:00,42.7,34.0,29.89,WNW,303,4.5,9.0,71,0.00,,,0.00,WeatherCatV1.24B11,2014-03-20 11:02:00,
2014-03-20 07:07:00,42.7,34.0,29.89,WNW,284,2.3,5.7,71,0.00,,,0.00,WeatherCatV1.24B11,2014-03-20 11:07:00,
2014-03-20 07:12:00,42.7,34.0,29.89,WNW,298,0.0,4.5,71,0.00,,,0.00,WeatherCatV1.24B11,2014-03-20 11:12:00,
2014-03-20 07:17:00,42.7,34.0,29.90,West,265,3.4,3.4,71,0.00,,,0.00,WeatherCatV1.24B11,2014-03-20 11:17:00,
2014-03-20 07:22:00,42.7,34.0,29.90,SSW,203,3.4,3.4,71,0.00,,,0.00,WeatherCatV1.24B11,2014-03-20 11:22:00,
2014-03-20 07:27:00,42.7,34.3,29.90,West,261,0.0,0.0,72,0.00,,,0.00,WeatherCatV1.24B11,2014-03-20 11:27:00,
2014-03-20 07:32:00,42.7,34.0,29.90,NW,308,3.4,6.8,71,0.00,,,0.00,WeatherCatV1.24B11,2014-03-20 11:32:00,
2014-03-20 07:37:00,42.8,33.7,29.91,WNW,292,0.0,3.4,70,0.00,,,0.00,WeatherCatV1.24B11,2014-03-20 11:37:00,
2014-03-20 07:42:00,42.9,34.2,29.91,WNW,294,1.1,3.4,71,0.00,,,0.00,WeatherCatV1.24B11,2014-03-20 11:42:00,
2014-03-20 07:47:00,43.0,33.9,29.91,WNW,284,2.3,11.3,70,0.00,,,0.00,WeatherCatV1.24B11,2014-03-20 11:47:00,
2014-03-20 07:52:00,43.2,34.1,29.91,WSW,256,5.7,6.8,70,0.00,,,0.00,WeatherCatV1.24B11,2014-03-20 11:52:00,
2014-03-20 07:57:00,43.3,33.5,29.92,WNW,296,3.4,5.7,68,0.00,,,0.00,WeatherCatV1.24B11,2014-03-20 11:57:00,
2014-03-20 08:02:00,43.4,32.8,29.92,West,267,7.9,10.2,66,0.00,,,0.00,WeatherCatV1.24B11,2014-03-20 12:02:00,
2014-03-20 08:07:00,43.6,32.6,29.92,WNW,296,6.8,10.2,65,0.00,,,0.00,WeatherCatV1.24B11,2014-03-20 12:07:00,
2014-03-20 08:12:00,43.7,31.9,29.92,NW,311,5.7,10.2,63,0.00,,,0.00,WeatherCatV1.24B11,2014-03-20 12:12:00,
2014-03-20 08:17:00,43.7,31.9,29.91,WNW,301,3.4,11.3,63,0.00,,,0.00,WeatherCatV1.24B11,2014-03-20 12:17:00,
2014-03-20 08:22:00,43.8,31.6,29.91,West,268,6.8,9.0,62,0.00,,,0.00,WeatherCatV1.24B11,2014-03-20 12:22:00,
2014-03-20 08:27:00,43.8,31.2,29.91,West,277,5.7,7.9,61,0.00,,,0.00,WeatherCatV1.24B11,2014-03-20 12:27:00,
2014-03-20 08:32:00,44.1,31.9,29.92,West,274,7.9,7.9,62,0.00,,,0.00,WeatherCatV1.24B11,2014-03-20 12:32:00,
2014-03-20 08:37:00,44.3,31.7,29.92,WNW,284,5.7,5.7,61,0.00,,,0.00,WeatherCatV1.24B11,2014-03-20 12:37:00,
2014-03-20 08:42:00,44.6,31.2,29.92,West,271,6.8,11.3,59,0.00,,,0.00,WeatherCatV1.24B11,2014-03-20 12:42:00,
2014-03-20 08:47:00,45.0,32.0,29.92,West,269,5.7,10.2,60,0.00,,,0.00,WeatherCatV1.24B11,2014-03-20 12:47:00,
2014-03-20 08:52:00,45.3,32.2,29.92,WSW,257,6.8,12.4,60,0.00,,,0.00,WeatherCatV1.24B11,2014-03-20 12:52:00,
2014-03-20 08:57:00,45.5,31.6,29.92,West,262,3.4,6.8,58,0.00,,,0.00,WeatherCatV1.24B11,2014-03-20 12:57:00,
2014-03-20 09:02:00,45.7,31.8,29.92,WNW,282,6.8,9.0,58,0.00,,,0.00,WeatherCatV1.24B11,2014-03-20 13:02:00,
2014-03-20 09:07:00,45.8,31.9,29.92,WSW,251,4.5,9.0,58,0.00,,,0.00,WeatherCatV1.24B11,2014-03-20 13:07:00,
2014-03-20 09:12:00,45.9,31.5,29.92,WSW,254,4.5,9.0,57,0.00,,,0.00,WeatherCatV1.24B11,2014-03-20 13:12:00,
2014-03-20 09:17:00,46.3,32.8,29.92,NW,311,6.8,9.0,59,0.00,,,0.00,WeatherCatV1.24B11,2014-03-20 13:17:00,
2014-03-20 09:22:00,46.7,32.7,29.92,West,272,4.5,9.0,58,0.00,,,0.00,WeatherCatV1.24B11,2014-03-20 13:22:00,
2014-03-20 09:27:00,46.7,32.7,29.92,NW,306,7.9,15.8,58,0.00,,,0.00,WeatherCatV1.24B11,2014-03-20 13:27:00,
2014-03-20 09:32:00,46.7,32.7,29.92,NW,307,6.8,12.4,58,0.00,,,0.00,WeatherCatV1.24B11,2014-03-20 13:32:00,
2014-03-20 09:37:00,46.3,31.9,29.92,WNW,289,13.6,20.3,57,0.00,,,0.00,WeatherCatV1.24B11,2014-03-20 13:37:00,
2014-03-20 09:42:00,45.9,32.0,29.91,WNW,286,18.1,18.1,58,0.00,,,0.00,WeatherCatV1.24B11,2014-03-20 13:42:00,
2014-03-20 09:47:00,45.7,32.2,29.92,NW,311,7.9,18.1,59,0.00,,,0.00,WeatherCatV1.24B11,2014-03-20 13:47:00,
2014-03-20 09:52:00,45.6,32.5,29.91,WNW,293,12.4,13.6,60,0.00,,,0.00,WeatherCatV1.24B11,2014-03-20 13:52:00,
2014-03-20 09:57:00,45.9,32.4,29.92,West,281,6.8,12.4,59,0.00,,,0.00,WeatherCatV1.24B11,2014-03-20 13:57:00,
2014-03-20 10:02:00,46.3,33.2,29.92,WNW,284,11.3,13.6,60,0.00,,,0.00,WeatherCatV1.24B11,2014-03-20 14:02:00,
2014-03-20 10:07:00,46.5,33.0,29.92,West,273,10.2,13.6,59,0.00,,,0.00,WeatherCatV1.24B11,2014-03-20 14:07:00,
2014-03-20 10:10:00,46.5,32.5,29.92,West,265,5.7,11.3,58,0.00,,,0.00,WeatherCatV1.24B11,2014-03-20 14:10:00,
2014-03-20 10:15:00,46.3,32.3,29.92,West,274,6.8,12.4,58,0.00,,,0.00,WeatherCatV1.24B11,2014-03-20 14:15:00,
2014-03-20 10:20:00,46.2,31.8,29.92,WSW,243,6.8,14.7,57,0.00,,,0.00,WeatherCatV1.24B11,2014-03-20 14:20:00,
2014-03-20 10:25:00,46.1,31.7,29.92,WSW,244,9.0,13.6,57,0.00,,,0.00,WeatherCatV1.24B11,2014-03-20 14:25:00,
2014-03-20 10:30:00,46.1,32.2,29.92,SW,236,11.3,13.6,58,0.00,,,0.00,WeatherCatV1.24B11,2014-03-20 14:30:00,
2014-03-20 10:35:00,46.0,31.6,29.93,WNW,288,19.2,21.5,57,0.00,,,0.00,WeatherCatV1.24B11,2014-03-20 14:35:00,
2014-03-20 10:40:00,46.0,31.6,29.92,WNW,286,13.6,15.8,57,0.00,,,0.00,WeatherCatV1.24B11,2014-03-20 14:40:00,
2014-03-20 10:45:00,46.0,31.6,29.93,WNW,296,12.4,22.6,57,0.00,,,0.00,WeatherCatV1.24B11,2014-03-20 14:45:00,
2014-03-20 10:50:00,45.8,32.7,29.92,WNW,299,19.2,21.5,60,0.00,,,0.00,WeatherCatV1.24B11,2014-03-20 14:50:00,
2014-03-20 10:55:00,45.4,33.2,29.93,WNW,283,6.8,14.7,62,0.00,,,0.00,WeatherCatV1.24B11,2014-03-20 14:55:00,
2014-03-20 11:00:00,46.1,34.2,29.93,NW,304,9.0,18.1,63,0.00,,,0.00,WeatherCatV1.24B11,2014-03-20 15:00:00,
2014-03-20 11:05:00,47.2,33.2,29.93,West,271,18.1,22.6,58,0.00,,,0.00,WeatherCatV1.24B11,2014-03-20 15:05:00,
2014-03-20 11:10:00,46.4,31.1,29.93,West,271,20.3,26.0,55,0.00,,,0.00,WeatherCatV1.24B11,2014-03-20 15:10:00,
2014-03-20 11:15:00,45.9,31.5,29.92,WNW,294,13.6,19.2,57,0.00,,,0.00,WeatherCatV1.24B11,2014-03-20 15:15:00,
2014-03-20 11:20:00,45.6,32.1,29.92,WNW,296,11.3,19.2,59,0.00,,,0.00,WeatherCatV1.24B11,2014-03-20 15:20:00,
2014-03-20 11:25:00,45.6,32.9,29.92,WSW,245,11.3,15.8,61,0.00,,,0.00,WeatherCatV1.24B11,2014-03-20 15:25:00,
2014-03-20 11:30:00,46.6,32.6,29.92,WNW,284,12.4,22.6,58,0.00,,,0.00,WeatherCatV1.24B11,2014-03-20 15:30:00,
2014-03-20 11:35:00,47.0,33.0,29.92,West,262,11.3,20.3,58,0.00,,,0.00,WeatherCatV1.24B11,2014-03-20 15:35:00,
2014-03-20 11:40:00,47.5,32.2,29.92,NW,306,5.7,22.6,55,0.00,,,0.00,WeatherCatV1.24B11,2014-03-20 15:40:00,
2014-03-20 11:45:00,47.7,31.9,29.92,West,269,12.4,24.9,54,0.00,,,0.00,WeatherCatV1.24B11,2014-03-20 15:45:00,
2014-03-20 11:50:00,47.2,31.4,29.92,NNW,329,7.9,22.6,54,0.00,,,0.00,WeatherCatV1.24B11,2014-03-20 15:50:00,
2014-03-20 11:55:00,47.2,31.9,29.92,WNW,288,6.8,19.2,55,0.00,,,0.00,WeatherCatV1.24B11,2014-03-20 15:55:00,
2014-03-20 12:00:00,47.3,32.8,29.92,WNW,292,13.6,20.3,57,0.00,,,0.00,WeatherCatV1.24B11,2014-03-20 16:00:00,
2014-03-20 12:05:00,46.6,32.6,29.92,West,266,10.2,13.6,58,0.00,,,0.00,WeatherCatV1.24B11,2014-03-20 16:05:00,
2014-03-20 12:10:00,46.5,32.1,29.92,West,269,20.3,26.0,57,0.00,,,0.00,WeatherCatV1.24B11,2014-03-20 16:10:00,
2014-03-20 12:15:00,47.0,33.4,29.92,WNW,283,14.7,20.3,59,0.00,,,0.00,WeatherCatV1.24B11,2014-03-20 16:15:00,
2014-03-20 12:20:00,47.8,32.9,29.92,WNW,286,13.6,20.3,56,0.00,,,0.00,WeatherCatV1.24B11,2014-03-20 16:20:00,
2014-03-20 12:25:00,48.0,33.1,29.92,West,276,15.8,15.8,56,0.00,,,0.00,WeatherCatV1.24B11,2014-03-20 16:25:00,
2014-03-20 12:30:00,48.0,31.2,29.92,WSW,246,14.7,26.0,52,0.00,,,0.00,WeatherCatV1.24B11,2014-03-20 16:30:00,
2014-03-20 12:35:00,48.0,29.8,29.92,West,279,15.8,23.7,49,0.00,,,0.00,WeatherCatV1.24B11,2014-03-20 16:35:00,
2014-03-20 12:40:00,48.0,27.7,29.92,West,281,18.1,29.4,45,0.00,,,0.00,WeatherCatV1.24B11,2014-03-20 16:40:00,
2014-03-20 12:45:00,48.3,29.0,29.92,West,268,13.6,22.6,47,0.00,,,0.00,WeatherCatV1.24B11,2014-03-20 16:45:00,
2014-03-20 12:50:00,48.1,27.8,29.92,WNW,285,23.7,29.4,45,0.00,,,0.00,WeatherCatV1.24B11,2014-03-20 16:50:00,
2014-03-20 12:55:00,47.9,28.1,29.93,WNW,291,14.7,20.3,46,0.00,,,0.00,WeatherCatV1.24B11,2014-03-20 16:55:00,
2014-03-20 13:00:00,48.5,30.2,29.92,WNW,284,6.8,28.3,49,0.00,,,0.00,WeatherCatV1.24B11,2014-03-20 17:00:00,
2014-03-20 13:05:00,48.5,28.7,29.93,WSW,251,11.3,20.3,46,0.00,,,0.00,WeatherCatV1.24B11,2014-03-20 17:05:00,
2014-03-20 13:10:00,48.5,27.6,29.92,NW,325,20.3,23.7,44,0.00,,,0.00,WeatherCatV1.24B11,2014-03-20 17:10:00,
2014-03-20 13:15:00,48.4,27.5,29.93,West,273,18.1,26.0,44,0.00,,,0.00,WeatherCatV1.24B11,2014-03-20 17:15:00,
2014-03-20 13:20:00,48.4,28.6,29.93,WNW,296,18.1,20.3,46,0.00,,,0.00,WeatherCatV1.24B11,2014-03-20 17:20:00,
2014-03-20 13:25:00,48.8,27.3,29.93,West,265,15.8,24.9,43,0.00,,,0.00,WeatherCatV1.24B11,2014-03-20 17:25:00,
2014-03-20 13:30:00,48.5,28.1,29.93,WNW,283,18.1,22.6,45,0.00,,,0.00,WeatherCatV1.24B11,2014-03-20 17:30:00,
2014-03-20 13:35:00,48.6,27.7,29.92,NW,312,18.1,19.2,44,0.00,,,0.00,WeatherCatV1.24B11,2014-03-20 17:35:00,
2014-03-20 13:40:00,48.7,27.8,29.92,West,271,19.2,20.3,44,0.00,,,0.00,WeatherCatV1.24B11,2014-03-20 17:40:00,
2014-03-20 13:45:00,48.9,28.0,29.92,West,277,14.7,19.2,44,0.00,,,0.00,WeatherCatV1.24B11,2014-03-20 17:45:00,
2014-03-20 13:50:00,49.0,28.0,29.92,WSW,257,6.8,24.9,44,0.00,,,0.00,WeatherCatV1.24B11,2014-03-20 17:50:00,
2014-03-20 13:55:00,49.2,27.7,29.92,WSW,257,14.7,27.1,43,0.00,,,0.00,WeatherCatV1.24B11,2014-03-20 17:55:00,
2014-03-20 14:00:00,49.5,27.9,29.92,West,263,12.4,23.7,43,0.00,,,0.00,WeatherCatV1.24B11,2014-03-20 18:00:00,
2014-03-20 14:05:00,49.3,26.6,29.92,WNW,290,7.9,18.1,41,0.00,,,0.00,WeatherCatV1.24B11,2014-03-20 18:05:00,
2014-03-20 14:10:00,49.5,27.4,29.92,WNW,290,10.2,22.6,42,0.00,,,0.00,WeatherCatV1.24B11,2014-03-20 18:10:00,
2014-03-20 14:15:00,49.2,27.7,29.92,WNW,298,23.7,23.7,43,0.00,,,0.00,WeatherCatV1.24B11,2014-03-20 18:15:00,
2014-03-20 14:20:00,49.6,26.9,29.92,WNW,284,15.8,21.5,41,0.00,,,0.00,WeatherCatV1.24B11,2014-03-20 18:20:00,
2014-03-20 14:25:00,49.3,26.0,29.91,West,269,10.2,20.3,40,0.00,,,0.00,WeatherCatV1.24B11,2014-03-20 18:25:00,
2014-03-20 14:30:00,49.3,26.0,29.91,WNW,282,9.0,18.1,40,0.00,,,0.00,WeatherCatV1.24B11,2014-03-20 18:30:00,
2014-03-20 14:35:00,49.1,26.4,29.91,West,274,18.1,24.9,41,0.00,,,0.00,WeatherCatV1.24B11,2014-03-20 18:35:00,
2014-03-20 14:40:00,49.4,26.7,29.91,NW,307,15.8,19.2,41,0.00,,,0.00,WeatherCatV1.24B11,2014-03-20 18:40:00,
2014-03-20 14:45:00,49.2,25.9,29.91,WNW,286,10.2,20.3,40,0.00,,,0.00,WeatherCatV1.24B11,2014-03-20 18:45:00,
2014-03-20 14:50:00,49.3,26.6,29.91,SW,229,4.5,12.4,41,0.00,,,0.00,WeatherCatV1.24B11,2014-03-20 18:50:00,
2014-03-20 14:55:00,50.1,26.7,29.91,NW,306,12.4,13.6,40,0.00,,,0.00,WeatherCatV1.24B11,2014-03-20 18:55:00,
2014-03-20 15:00:00,50.5,28.3,29.90,West,267,14.7,14.7,42,0.00,,,0.00,WeatherCatV1.24B11,2014-03-20 19:00:00,
2014-03-20 15:05:00,50.8,27.4,29.90,NW,317,14.7,19.2,40,0.00,,,0.00,WeatherCatV1.24B11,2014-03-20 19:05:00,
2014-03-20 15:06:00,50.7,27.3,29.91,NW,313,19.2,19.2,40,0.00,,,0.00,WeatherCatV1.24B11,2014-03-20 19:06:00,
2014-03-20 15:12:00,50.4,25.1,29.90,West,276,14.7,20.3,37,0.00,,,0.00,WeatherCatV1.24B11,2014-03-20 19:12:00,
2014-03-20 15:17:00,50.6,28.4,29.90,NW,315,13.6,19.2,42,0.00,,,0.00,WeatherCatV1.24B11,2014-03-20 19:17:00,
2014-03-20 15:22:00,50.8,26.1,29.90,West,281,9.0,19.2,38,0.00,,,0.00,WeatherCatV1.24B11,2014-03-20 19:22:00,
2014-03-20 15:27:00,50.7,26.7,29.90,NW,307,10.2,20.3,39,0.00,,,0.00,WeatherCatV1.24B11,2014-03-20 19:27:00,
2014-03-20 15:32:00,50.9,25.6,29.91,SW,236,7.9,19.2,37,0.00,,,0.00,WeatherCatV1.24B11,2014-03-20 19:32:00,
2014-03-20 15:37:00,51.0,27.5,29.91,NNW,338,6.8,20.3,40,0.00,,,0.00,WeatherCatV1.24B11,2014-03-20 19:37:00,
2014-03-20 15:42:00,51.0,25.6,29.91,West,275,11.3,17.0,37,0.00,,,0.00,WeatherCatV1.24B11,2014-03-20 19:42:00,
2014-03-20 15:47:00,51.3,27.8,29.90,WNW,302,15.8,19.2,40,0.00,,,0.00,WeatherCatV1.24B11,2014-03-20 19:47:00,
2014-03-20 15:52:00,51.4,27.9,29.91,WNW,286,13.6,17.0,40,0.00,,,0.00,WeatherCatV1.24B11,2014-03-20 19:52:00,
2014-03-20 15:57:00,51.6,26.8,29.90,WNW,299,13.6,14.7,38,0.00,,,0.00,WeatherCatV1.24B11,2014-03-20 19:57:00,
2014-03-20 16:02:00,51.6,26.8,29.91,WNW,296,13.6,14.7,38,0.00,,,0.00,WeatherCatV1.24B11,2014-03-20 20:02:00,
2014-03-20 16:07:00,51.9,26.5,29.91,SW,236,9.0,17.0,37,0.00,,,0.00,WeatherCatV1.24B11,2014-03-20 20:07:00,
2014-03-20 16:12:00,51.8,25.7,29.91,West,267,13.6,19.2,36,0.00,,,0.00,WeatherCatV1.24B11,2014-03-20 20:12:00,
2014-03-20 16:17:00,51.5,25.4,29.91,WSW,248,7.9,14.7,36,0.00,,,0.00,WeatherCatV1.24B11,2014-03-20 20:17:00,
2014-03-20 16:22:00,51.7,26.9,29.91,NNW,334,7.9,18.1,38,0.00,,,0.00,WeatherCatV1.24B11,2014-03-20 20:22:00,
2014-03-20 16:27:00,51.6,24.9,29.91,West,265,11.3,23.7,35,0.00,,,0.00,WeatherCatV1.24B11,2014-03-20 20:27:00,
2014-03-20 16:32:00,51.0,24.3,29.91,West,259,9.0,14.7,35,0.00,,,0.00,WeatherCatV1.24B11,2014-03-20 20:32:00,
2014-03-20 16:37:00,50.8,24.8,29.91,WSW,254,6.8,15.8,36,0.00,,,0.00,WeatherCatV1.24B11,2014-03-20 20:37:00,
2014-03-20 16:42:00,51.4,25.4,29.91,West,278,18.1,22.6,36,0.00,,,0.00,WeatherCatV1.24B11,2014-03-20 20:42:00,
2014-03-20 16:47:00,51.5,25.4,29.91,WNW,286,19.2,20.3,36,0.00,,,0.00,WeatherCatV1.24B11,2014-03-20 20:47:00,
2014-03-20 16:52:00,51.0,25.0,29.91,WNW,286,12.4,22.6,36,0.00,,,0.00,WeatherCatV1.24B11,2014-03-20 20:52:00,
2014-03-20 16:57:00,50.7,24.7,29.91,West,279,13.6,21.5,36,0.00,,,0.00,WeatherCatV1.24B11,2014-03-20 20:57:00,
2014-03-20 17:02:00,50.6,24.0,29.92,West,281,10.2,24.9,35,0.00,,,0.00,WeatherCatV1.24B11,2014-03-20 21:02:00,
2014-03-20 17:07:00,50.8,25.5,29.92,WNW,288,5.7,13.6,37,0.00,,,0.00,WeatherCatV1.24B11,2014-03-20 21:07:00,
2014-03-20 17:12:00,50.9,24.9,29.92,WNW,296,13.6,18.1,36,0.00,,,0.00,WeatherCatV1.24B11,2014-03-20 21:12:00,
2014-03-20 17:17:00,50.6,25.9,29.92,WNW,283,12.4,15.8,38,0.00,,,0.00,WeatherCatV1.24B11,2014-03-20 21:17:00,
2014-03-20 17:22:00,50.7,26.7,29.92,WNW,302,13.6,20.3,39,0.00,,,0.00,WeatherCatV1.24B11,2014-03-20 21:22:00,
2014-03-20 17:27:00,50.2,25.6,29.92,West,277,6.8,14.7,38,0.00,,,0.00,WeatherCatV1.24B11,2014-03-20 21:27:00,
2014-03-20 17:32:00,49.6,25.7,29.92,WNW,290,12.4,15.8,39,0.00,,,0.00,WeatherCatV1.24B11,2014-03-20 21:32:00,
2014-03-20 17:37:00,49.6,25.7,29.92,WNW,303,10.2,12.4,39,0.00,,,0.00,WeatherCatV1.24B11,2014-03-20 21:37:00,
2014-03-20 17:42:00,49.9,25.9,29.92,NW,304,10.2,19.2,39,0.00,,,0.00,WeatherCatV1.24B11,2014-03-20 21:42:00,
2014-03-20 17:47:00,49.4,24.9,29.92,WNW,290,12.4,13.6,38,0.00,,,0.00,WeatherCatV1.24B11,2014-03-20 21:47:00,
2014-03-20 17:52:00,49.4,26.1,29.92,WNW,287,7.9,17.0,40,0.00,,,0.00,WeatherCatV1.24B11,2014-03-20 21:52:00,
2014-03-20 17:57:00,49.0,25.7,29.93,NW,309,7.9,15.8,40,0.00,,,0.00,WeatherCatV1.24B11,2014-03-20 21:57:00,
2014-03-20 18:02:00,48.5,25.9,29.93,West,273,15.8,17.0,41,0.00,,,0.00,WeatherCatV1.24B11,2014-03-20 22:02:00,
2014-03-20 18:07:00,48.3,26.3,29.93,WNW,285,6.8,14.7,42,0.00,,,0.00,WeatherCatV1.24B11,2014-03-20 22:07:00,
2014-03-20 18:12:00,48.1,25.5,29.93,NW,306,11.3,15.8,41,0.00,,,0.00,WeatherCatV1.24B11,2014-03-20 22:12:00,
2014-03-20 18:17:00,47.7,25.7,29.93,West,279,10.2,23.7,42,0.00,,,0.00,WeatherCatV1.24B11,2014-03-20 22:17:00,
2014-03-20 18:22:00,47.5,25.0,29.94,NW,325,4.5,17.0,41,0.00,,,0.00,WeatherCatV1.24B11,2014-03-20 22:22:00,
2014-03-20 18:27:00,47.3,25.4,29.94,WNW,300,13.6,20.3,42,0.00,,,0.00,WeatherCatV1.24B11,2014-03-20 22:27:00,
2014-03-20 18:32:00,47.0,25.1,29.94,WNW,295,17.0,26.0,42,0.00,,,0.00,WeatherCatV1.24B11,2014-03-20 22:32:00,
2014-03-20 18:38:00,46.9,25.0,29.95,WNW,286,13.6,17.0,42,0.00,,,0.00,WeatherCatV1.24B11,2014-03-20 22:38:00,
2014-03-20 18:43:00,46.9,25.0,29.95,WNW,298,10.2,15.8,42,0.00,,,0.00,WeatherCatV1.24B11,2014-03-20 22:43:00,
2014-03-20 18:47:00,46.7,24.8,29.95,WNW,293,15.8,15.8,42,0.00,,,0.00,WeatherCatV1.24B11,2014-03-20 22:47:00,
2014-03-20 18:53:00,46.5,24.7,29.95,WNW,284,6.8,15.8,42,0.00,,,0.00,WeatherCatV1.24B11,2014-03-20 22:53:00,
2014-03-20 18:58:00,46.1,24.9,29.95,NW,310,9.0,20.3,43,0.00,,,0.00,WeatherCatV1.24B11,2014-03-20 22:58:00,
2014-03-20 19:03:00,45.9,24.7,29.95,NW,319,9.0,12.4,43,0.00,,,0.00,WeatherCatV1.24B11,2014-03-20 23:03:00,
2014-03-20 19:07:00,45.6,24.4,29.95,NW,315,11.3,22.6,43,0.00,,,0.00,WeatherCatV1.24B11,2014-03-20 23:07:00,
2014-03-20 19:13:00,45.5,24.9,29.95,WNW,292,18.1,18.1,44,0.00,,,0.00,WeatherCatV1.24B11,2014-03-20 23:13:00,
2014-03-20 19:18:00,45.4,24.8,29.95,WNW,291,6.8,21.5,44,0.00,,,0.00,WeatherCatV1.24B11,2014-03-20 23:18:00,
2014-03-20 19:22:00,45.2,24.6,29.96,NW,319,15.8,17.0,44,0.00,,,0.00,WeatherCatV1.24B11,2014-03-20 23:22:00,
2014-03-20 19:28:00,45.0,25.0,29.96,West,271,4.5,15.8,45,0.00,,,0.00,WeatherCatV1.24B11,2014-03-20 23:28:00,
2014-03-20 19:33:00,44.7,24.7,29.97,NW,318,11.3,19.2,45,0.00,,,0.00,WeatherCatV1.24B11,2014-03-20 23:33:00,
2014-03-20 19:38:00,44.5,25.0,29.97,NW,311,4.5,10.2,46,0.00,,,0.00,WeatherCatV1.24B11,2014-03-20 23:38:00,
2014-03-20 19:43:00,44.1,25.2,29.97,NW,312,14.7,18.1,47,0.00,,,0.00,WeatherCatV1.24B11,2014-03-20 23:43:00,
2014-03-20 19:48:00,44.0,25.1,29.97,WNW,297,9.0,18.1,47,0.00,,,0.00,WeatherCatV1.24B11,2014-03-20 23:48:00,
2014-03-20 19:53:00,43.9,25.0,29.98,NNW,329,10.2,18.1,47,0.00,,,0.00,WeatherCatV1.24B11,2014-03-20 23:53:00,
2014-03-20 19:58:00,43.8,24.9,29.98,NW,306,11.3,14.7,47,0.00,,,0.00,WeatherCatV1.24B11,2014-03-20 23:58:00,
2014-03-20 20:03:00,43.9,25.5,29.98,NW,311,9.0,21.5,48,0.00,,,0.00,WeatherCatV1.24B11,2014-03-21 00:03:00,
2014-03-20 20:07:00,44.1,25.2,29.98,WNW,300,14.7,19.2,47,0.00,,,0.00,WeatherCatV1.24B11,2014-03-21 00:07:00,
2014-03-20 20:12:00,44.2,25.3,29.99,WNW,302,5.7,11.3,47,0.00,,,0.00,WeatherCatV1.24B11,2014-03-21 00:12:00,
2014-03-20 20:17:00,44.1,25.7,29.99,WNW,289,10.2,20.3,48,0.00,,,0.00,WeatherCatV1.24B11,2014-03-21 00:17:00,
2014-03-20 20:23:00,44.1,25.7,29.99,NW,306,13.6,20.3,48,0.00,,,0.00,WeatherCatV1.24B11,2014-03-21 00:23:00,
2014-03-20 20:27:00,44.0,25.6,29.99,WNW,299,11.3,14.7,48,0.00,,,0.00,WeatherCatV1.24B11,2014-03-21 00:27:00,
2014-03-20 20:32:00,43.7,25.3,29.99,NW,311,6.8,17.0,48,0.00,,,0.00,WeatherCatV1.24B11,2014-03-21 00:32:00,
2014-03-20 20:37:00,43.6,25.7,30.00,WNW,294,6.8,11.3,49,0.00,,,0.00,WeatherCatV1.24B11,2014-03-21 00:37:00,
2014-03-20 20:43:00,43.2,25.4,30.00,WNW,302,7.9,13.6,49,0.00,,,0.00,WeatherCatV1.24B11,2014-03-21 00:43:00,
2014-03-20 20:48:00,43.0,25.2,30.00,NW,304,7.9,14.7,49,0.00,,,0.00,WeatherCatV1.24B11,2014-03-21 00:48:00,
2014-03-20 20:53:00,42.9,25.5,30.00,NW,304,2.3,6.8,50,0.00,,,0.00,WeatherCatV1.24B11,2014-03-21 00:53:00,
2014-03-20 20:58:00,42.5,25.2,30.00,NW,308,6.8,11.3,50,0.00,,,0.00,WeatherCatV1.24B11,2014-03-21 00:58:00,
2014-03-20 21:02:00,42.3,25.0,30.00,NW,316,6.8,10.2,50,0.00,,,0.00,WeatherCatV1.24B11,2014-03-21 01:02:00,
2014-03-20 21:08:00,42.0,25.2,30.01,NW,309,3.4,6.8,51,0.00,,,0.00,WeatherCatV1.24B11,2014-03-21 01:08:00,
2014-03-20 21:13:00,41.8,25.0,30.01,NW,318,4.5,9.0,51,0.00,,,0.00,WeatherCatV1.24B11,2014-03-21 01:13:00,
2014-03-20 21:17:00,41.5,25.2,30.01,WNW,302,1.1,5.7,52,0.00,,,0.00,WeatherCatV1.24B11,2014-03-21 01:17:00,
2014-03-20 21:23:00,41.3,24.5,30.01,West,276,4.5,13.6,51,0.00,,,0.00,WeatherCatV1.24B11,2014-03-21 01:23:00,
2014-03-20 21:28:00,41.7,24.9,30.01,West,277,9.0,13.6,51,0.00,,,0.00,WeatherCatV1.24B11,2014-03-21 01:28:00,
2014-03-20 21:33:00,42.2,24.9,30.01,WNW,294,9.0,10.2,50,0.00,,,0.00,WeatherCatV1.24B11,2014-03-21 01:33:00,
2014-03-20 21:38:00,42.3,25.0,30.01,WNW,282,12.4,13.6,50,0.00,,,0.00,WeatherCatV1.24B11,2014-03-21 01:38:00,
2014-03-20 21:43:00,42.6,24.8,30.01,WNW,288,5.7,17.0,49,0.00,,,0.00,WeatherCatV1.24B11,2014-03-21 01:43:00,
2014-03-20 21:48:00,42.5,24.7,30.01,West,277,2.3,12.4,49,0.00,,,0.00,WeatherCatV1.24B11,2014-03-21 01:48:00,
2014-03-20 21:52:00,42.3,25.0,30.01,WNW,292,7.9,9.0,50,0.00,,,0.00,WeatherCatV1.24B11,2014-03-21 01:52:00,
2014-03-20 21:58:00,42.2,24.4,30.01,NW,321,7.9,14.7,49,0.00,,,0.00,WeatherCatV1.24B11,2014-03-21 01:58:00,
2014-03-20 22:03:00,42.3,24.5,30.01,NW,317,10.2,14.7,49,0.00,,,0.00,WeatherCatV1.24B11,2014-03-21 02:03:00,
2014-03-20 22:08:00,42.3,24.5,30.01,NW,304,14.7,23.7,49,0.00,,,0.00,WeatherCatV1.24B11,2014-03-21 02:08:00,
2014-03-20 22:13:00,42.4,24.6,30.01,WNW,302,11.3,17.0,49,0.00,,,0.00,WeatherCatV1.24B11,2014-03-21 02:13:00,
2014-03-20 22:18:00,42.2,24.4,30.01,West,270,7.9,13.6,49,0.00,,,0.00,WeatherCatV1.24B11,2014-03-21 02:18:00,
2014-03-20 22:23:00,41.9,24.6,30.01,WNW,303,7.9,18.1,50,0.00,,,0.00,WeatherCatV1.24B11,2014-03-21 02:23:00,
2014-03-20 22:28:00,41.8,24.5,30.01,NW,306,10.2,13.6,50,0.00,,,0.00,WeatherCatV1.24B11,2014-03-21 02:28:00,
2014-03-20 22:33:00,41.5,24.3,30.01,NW,309,6.8,15.8,50,0.00,,,0.00,WeatherCatV1.24B11,2014-03-21 02:33:00,
2014-03-20 22:38:00,41.5,24.7,30.01,NW,310,5.7,12.4,51,0.00,,,0.00,WeatherCatV1.24B11,2014-03-21 02:38:00,
2014-03-20 22:43:00,41.4,24.6,30.01,NW,311,7.9,11.3,51,0.00,,,0.00,WeatherCatV1.24B11,2014-03-21 02:43:00,
2014-03-20 22:48:00,41.1,24.4,30.01,WNW,298,6.8,11.3,51,0.00,,,0.00,WeatherCatV1.24B11,2014-03-21 02:48:00,
2014-03-20 22:53:00,40.9,24.6,30.01,NW,324,5.7,7.9,52,0.00,,,0.00,WeatherCatV1.24B11,2014-03-21 02:53:00,
2014-03-20 22:58:00,40.6,24.4,30.01,WNW,301,5.7,7.9,52,0.00,,,0.00,WeatherCatV1.24B11,2014-03-21 02:58:00,
2014-03-20 23:03:00,40.3,24.5,30.01,WNW,300,5.7,10.2,53,0.00,,,0.00,WeatherCatV1.24B11,2014-03-21 03:03:00,
2014-03-20 23:07:00,40.1,24.4,30.01,WNW,302,3.4,7.9,53,0.00,,,0.00,WeatherCatV1.24B11,2014-03-21 03:07:00,
2014-03-20 23:13:00,39.9,24.6,30.01,NW,322,0.0,6.8,54,0.00,,,0.00,WeatherCatV1.24B11,2014-03-21 03:13:00,
2014-03-20 23:18:00,39.6,24.3,30.01,NW,311,3.4,10.2,54,0.00,,,0.00,WeatherCatV1.24B11,2014-03-21 03:18:00,
2014-03-20 23:23:00,39.3,24.1,30.01,NW,317,2.3,5.7,54,0.00,,,0.00,WeatherCatV1.24B11,2014-03-21 03:23:00,
2014-03-20 23:27:00,39.1,24.3,30.01,NW,312,3.4,4.5,55,0.00,,,0.00,WeatherCatV1.24B11,2014-03-21 03:27:00,
2014-03-20 23:33:00,38.9,24.6,30.02,WNW,297,2.3,4.5,56,0.00,,,0.00,WeatherCatV1.24B11,2014-03-21 03:33:00,
2014-03-20 23:38:00,38.6,24.3,30.02,NW,304,0.0,5.7,56,0.00,,,0.00,WeatherCatV1.24B11,2014-03-21 03:38:00,
2014-03-20 23:43:00,38.3,24.4,30.01,WNW,302,0.0,2.3,57,0.00,,,0.00,WeatherCatV1.24B11,2014-03-21 03:43:00,
2014-03-20 23:48:00,37.9,24.0,30.02,WNW,302,0.0,1.1,57,0.00,,,0.00,WeatherCatV1.24B11,2014-03-21 03:48:00,
2014-03-20 23:53:00,37.7,24.3,30.01,WNW,296,1.1,3.4,58,0.00,,,0.00,WeatherCatV1.24B11,2014-03-21 03:53:00,
2014-03-20 23:58:00,37.5,24.1,30.01,WNW,295,0.0,2.3,58,0.00,,,0.00,WeatherCatV1.24B11,2014-03-21 03:58:00,